Osburn, Idaho
Current Conditions -  °F | °C
As of 7:56 PM on Friday 24 Oct 2014 (Local Time) from KMLP Reporting Station
Light Rain Light Rain  
Wind Chill: 29°   Ceiling: 400
Heat Index: 36°   Visibility: 2.5mi
Dew Point: 36°   Wind: 9mph
Humidity: 100%   Direction: 140°SE
Pressure: 30.05"   Gusts: 18mph
Location:  47.51°N, 116°W
Report Text: KMLP 250256Z AUTO 14008G16KT 2 1/2SM -RA BR OVC004 02/02 A3005 RMK AO2 VIS 1V5 P0000 T00220022
Loading
Personal Weather Stations






























Interactive Weather Map
Tropical Storm Tracking
New forecast layout! Learn more

10-Day Weather Forecast

Advertisements
Track Severe Weather on mobile